Terminal Aerodrome Forecast
Issued by NWS

Home | Current Version | Previous Version | Text Only | Print | Product List | Glossary Off
Versions: 1 2 3 4 5 6 7 8 9 10 11 12 13 14 15 16 17 18 19 20 21 22 23 24 25 26

000
FTUS41 KCLE 242300
TAFFDY
TAF
KFDY 242334Z 2500/2524 27015G32KT 6SM -SHRA VCTS BKN006CB OVC015
      TEMPO 2500/2503 2SM -SHRA BR SCT006 OVC012
     FM250300 26020G30KT P6SM -SHRA OVC012
     FM250700 25015G30KT 3SM -SHSN OVC012
     FM251000 25012G22KT P6SM OVC015
     FM251400 26012G24KT P6SM -SHSN OVC024=

USA.gov is the U.S. government's official web portal to all federal, state and local government web resources and services.